createdAt,value
2023-04-20T00:02:59.652Z,1.63
2023-04-20T00:07:01.703Z,1.60
2023-04-20T00:11:03.539Z,2.17
2023-04-20T00:15:06.336Z,2.22
2023-04-20T00:19:08.936Z,2.28
2023-04-20T00:23:11.448Z,1.92
2023-04-20T00:27:13.289Z,1.80
2023-04-20T00:31:15.166Z,1.75
2023-04-20T00:35:17.162Z,1.98
2023-04-20T00:39:19.796Z,1.85
2023-04-20T00:43:22.610Z,1.75
2023-04-20T00:47:26.373Z,2.30
2023-04-20T00:51:29.891Z,1.85
2023-04-20T00:55:32.850Z,2.35
2023-04-20T00:59:34.729Z,1.80
2023-04-20T01:03:37.239Z,2.00
2023-04-20T01:07:39.193Z,1.73
2023-04-20T01:11:41.083Z,2.42
2023-04-20T01:15:43.031Z,1.75
2023-04-20T01:19:45.345Z,1.80
2023-04-20T01:23:47.542Z,2.00
2023-04-20T01:27:49.432Z,2.30
2023-04-20T01:31:51.869Z,2.13
2023-04-20T01:35:54.296Z,2.20
2023-04-20T01:39:57.160Z,2.13
2023-04-20T01:43:59.030Z,2.20
2023-04-20T01:48:01.566Z,2.70
2023-04-20T01:52:03.563Z,2.55
2023-04-20T01:56:05.568Z,3.17
2023-04-20T02:00:09.141Z,3.05
2023-04-20T02:04:16.006Z,2.67
2023-04-20T02:08:17.836Z,3.03
2023-04-20T02:12:19.718Z,2.65
2023-04-20T02:16:23.702Z,3.00
2023-04-20T02:20:25.567Z,2.95
2023-04-20T02:24:27.416Z,2.65
2023-04-20T02:28:30.591Z,3.20
2023-04-20T02:32:33.307Z,3.45
2023-04-20T02:36:35.815Z,3.20
2023-04-20T02:40:39.725Z,2.97
2023-04-20T02:44:41.700Z,3.25
2023-04-20T02:48:43.588Z,3.58
2023-04-20T02:52:46.212Z,3.20
2023-04-20T02:56:48.030Z,3.42
2023-04-20T03:00:50.768Z,3.30
2023-04-20T03:04:52.971Z,3.25
2023-04-20T03:08:56.702Z,2.92
2023-04-20T03:13:21.681Z,3.55
2023-04-20T03:17:34.017Z,2.63
2023-04-20T03:21:36.508Z,3.25
2023-04-20T03:25:38.352Z,3.05
2023-04-20T03:29:44.233Z,3.60
2023-04-20T03:33:46.583Z,3.03
2023-04-20T03:37:48.446Z,3.33
2023-04-20T03:41:50.386Z,3.08
2023-04-20T03:45:52.205Z,2.75
2023-04-20T03:49:54.657Z,3.40
2023-04-20T03:53:56.487Z,2.72
2023-04-20T03:57:58.969Z,3.03
2023-04-20T04:02:06.155Z,2.80
2023-04-20T04:06:10.617Z,2.53
2023-04-20T04:10:12.508Z,2.70
2023-04-20T04:14:14.663Z,2.97
2023-04-20T04:18:17.252Z,2.38
2023-04-20T04:22:19.532Z,2.75
2023-04-20T04:26:41.532Z,2.28
2023-04-20T04:30:43.545Z,2.67
2023-04-20T04:34:46.530Z,2.45
2023-04-20T04:38:49.887Z,2.67
2023-04-20T04:42:52.694Z,2.50
2023-04-20T04:46:55.618Z,2.50
2023-04-20T04:51:00.732Z,2.67
2023-04-20T04:55:04.228Z,2.10
2023-04-20T04:59:06.253Z,2.25
2023-04-20T05:03:08.204Z,1.92
2023-04-20T05:07:10.661Z,2.47
2023-04-20T05:11:12.510Z,2.45
2023-04-20T05:15:14.474Z,2.22
2023-04-20T05:19:16.470Z,1.80
2023-04-20T05:23:19.281Z,2.08
2023-04-20T05:27:21.459Z,2.30
2023-04-20T05:31:23.207Z,2.28
2023-04-20T05:35:25.183Z,2.13
2023-04-20T05:39:26.946Z,2.03
2023-04-20T05:43:28.759Z,2.35
2023-04-20T05:47:30.728Z,2.25
2023-04-20T05:51:34.270Z,1.67
2023-04-20T05:55:36.169Z,2.10
2023-04-20T05:59:38.220Z,2.03
2023-04-20T06:03:40.273Z,2.40
2023-04-20T06:07:42.233Z,2.08
2023-04-20T06:11:44.032Z,2.08
2023-04-20T06:15:45.961Z,1.70
2023-04-20T06:19:47.859Z,1.52
2023-04-20T06:23:49.655Z,1.85
2023-04-20T06:27:52.837Z,1.98
2023-04-20T06:31:55.096Z,2.20
2023-04-20T06:35:56.925Z,2.38
2023-04-20T06:39:58.867Z,2.30
2023-04-20T06:44:00.940Z,2.22
2023-04-20T06:48:02.966Z,1.73
2023-04-20T06:52:05.381Z,2.30
2023-04-20T06:56:07.563Z,2.28
2023-04-20T07:00:11.689Z,2.20
2023-04-20T07:04:13.550Z,3.08
2023-04-20T07:08:18.713Z,2.00
2023-04-20T07:12:20.584Z,2.78
2023-04-20T07:16:22.526Z,2.47
2023-04-20T07:20:24.434Z,2.47
2023-04-20T07:24:26.231Z,2.30
2023-04-20T07:28:28.109Z,2.05
2023-04-20T07:32:29.952Z,2.80
2023-04-20T07:36:32.917Z,2.60
2023-04-20T07:40:34.709Z,2.67
2023-04-20T07:44:37.302Z,2.60
2023-04-20T07:48:39.100Z,2.38
2023-04-20T07:52:40.945Z,2.55
2023-04-20T07:56:42.722Z,2.75
2023-04-20T08:00:47.542Z,2.70
2023-04-20T08:04:50.273Z,3.38
2023-04-20T08:08:53.036Z,2.70
2023-04-20T08:12:54.940Z,2.30
2023-04-20T08:16:56.844Z,2.75
2023-04-20T08:20:58.770Z,2.78
2023-04-20T08:25:00.654Z,2.55
2023-04-20T08:29:03.673Z,2.38
2023-04-20T08:33:05.583Z,2.88
2023-04-20T08:37:07.427Z,2.65
2023-04-20T08:41:09.430Z,2.45
2023-04-20T08:45:12.254Z,3.20
2023-04-20T08:49:16.165Z,4.68
2023-04-20T08:53:18.013Z,4.20
2023-04-20T08:57:19.859Z,3.88
2023-04-20T09:01:34.932Z,2.90
2023-04-20T09:05:40.090Z,3.20
2023-04-20T09:09:42.029Z,2.92
2023-04-20T09:13:43.843Z,3.08
2023-04-20T09:17:45.668Z,3.08
2023-04-20T09:21:55.187Z,3.35
2023-04-20T09:25:56.975Z,2.80
2023-04-20T09:30:01.271Z,2.90
2023-04-20T09:34:04.082Z,2.70
2023-04-20T09:38:07.167Z,2.95
2023-04-20T09:42:12.471Z,3.00
2023-04-20T09:46:14.437Z,3.67
2023-04-20T09:50:26.759Z,3.10
2023-04-20T09:54:29.759Z,3.45
2023-04-20T09:58:32.657Z,3.45
2023-04-20T10:02:34.726Z,3.55
2023-04-20T10:06:37.699Z,3.28
2023-04-20T10:10:50.743Z,3.35
2023-04-20T10:14:57.465Z,3.35
2023-04-20T10:19:05.248Z,3.22
2023-04-20T10:23:10.648Z,3.72
2023-04-20T10:27:22.289Z,3.53
2023-04-20T10:31:35.950Z,3.30
2023-04-20T10:35:46.804Z,3.63
2023-04-20T10:39:48.773Z,3.65
2023-04-20T10:43:50.910Z,3.58
2023-04-20T10:47:53.047Z,2.95
2023-04-20T10:51:55.859Z,3.58
2023-04-20T10:56:01.269Z,3.40
2023-04-20T11:00:17.978Z,2.95
2023-04-20T11:04:29.901Z,3.58
2023-04-20T11:08:42.175Z,3.03
2023-04-20T11:12:44.036Z,3.45
2023-04-20T11:16:53.405Z,3.97
2023-04-20T11:20:56.307Z,3.63
2023-04-20T11:25:09.529Z,3.67
2023-04-20T11:29:11.675Z,3.80
2023-04-20T11:33:14.518Z,3.15
2023-04-20T11:37:17.656Z,4.25
2023-04-20T11:41:19.498Z,3.28
2023-04-20T11:45:22.056Z,3.60
2023-04-20T11:49:29.239Z,4.22
2023-04-20T11:53:31.061Z,3.90
2023-04-20T11:57:32.967Z,4.05
2023-04-20T12:01:38.309Z,4.00
2023-04-20T12:05:40.388Z,3.65
2023-04-20T12:09:42.268Z,4.07
2023-04-20T12:13:44.078Z,4.05
2023-04-20T12:17:46.314Z,3.72
2023-04-20T12:21:48.307Z,4.13
2023-04-20T12:25:50.095Z,4.10
2023-04-20T12:29:52.157Z,4.70
2023-04-20T12:33:53.976Z,4.13
2023-04-20T12:37:56.290Z,5.13
2023-04-20T12:41:58.465Z,4.10
2023-04-20T12:46:00.271Z,4.13
2023-04-20T12:50:02.486Z,4.60
2023-04-20T12:54:04.409Z,4.00
2023-04-20T12:58:06.480Z,4.40
2023-04-20T13:02:08.331Z,4.75
2023-04-20T13:06:14.181Z,4.25
2023-04-20T13:10:18.008Z,4.75
2023-04-20T13:14:20.356Z,4.70
2023-04-20T13:18:24.343Z,4.63
2023-04-20T13:22:26.231Z,3.75
2023-04-20T13:26:28.147Z,4.43
2023-04-20T13:30:30.159Z,4.20
2023-04-20T13:34:31.976Z,4.55
2023-04-20T13:38:33.899Z,4.30
2023-04-20T13:42:35.750Z,4.40
2023-04-20T13:46:37.599Z,4.25
2023-04-20T13:50:39.416Z,5.03
2023-04-20T13:54:41.339Z,4.38
2023-04-20T13:58:43.763Z,4.10
2023-04-20T14:02:46.788Z,4.45
2023-04-20T14:06:48.627Z,3.97
2023-04-20T14:10:51.015Z,4.18
2023-04-20T14:14:58.193Z,3.72
2023-04-20T14:19:00.375Z,4.20
2023-04-20T14:23:02.286Z,3.97
2023-04-20T14:27:04.128Z,3.72
2023-04-20T14:31:06.026Z,3.92
2023-04-20T14:35:09.358Z,4.75
2023-04-20T14:39:11.661Z,4.45
2023-04-20T14:43:13.510Z,4.47
2023-04-20T14:47:16.014Z,4.18
2023-04-20T14:51:19.978Z,4.03
2023-04-20T14:55:23.670Z,4.15
2023-04-20T14:59:27.156Z,3.97
2023-04-20T15:03:29.390Z,4.00
2023-04-20T15:07:31.520Z,3.65
2023-04-20T15:11:33.486Z,4.00
2023-04-20T15:15:47.708Z,3.30
2023-04-20T15:19:50.458Z,3.78
2023-04-20T15:23:52.377Z,3.88
2023-04-20T15:27:54.241Z,3.85
2023-04-20T15:31:56.120Z,3.20
2023-04-20T15:35:58.186Z,3.28
2023-04-20T15:40:00.763Z,3.65
2023-04-20T15:44:02.725Z,4.15
2023-04-20T15:48:04.587Z,3.72
2023-04-20T15:52:08.512Z,4.30
2023-04-20T15:56:10.343Z,3.80
2023-04-20T16:00:12.853Z,4.30
2023-04-20T16:04:15.980Z,4.35
2023-04-20T16:08:19.142Z,3.47
2023-04-20T16:12:21.042Z,3.90
2023-04-20T16:16:22.996Z,4.30
2023-04-20T16:20:24.894Z,4.32
2023-04-20T16:24:26.949Z,3.75
2023-04-20T16:28:28.752Z,4.18
2023-04-20T16:32:31.666Z,4.20
2023-04-20T16:36:33.532Z,3.70
2023-04-20T16:40:35.323Z,4.28
2023-04-20T16:44:37.610Z,4.28
2023-04-20T16:48:40.639Z,3.72
2023-04-20T16:52:42.506Z,3.90
2023-04-20T16:56:44.314Z,4.35
2023-04-20T17:00:46.214Z,3.78
2023-04-20T17:04:48.049Z,3.90
2023-04-20T17:08:50.550Z,3.92
2023-04-20T17:12:52.422Z,3.83
2023-04-20T17:16:55.137Z,3.60
2023-04-20T17:20:58.691Z,3.25
2023-04-20T17:25:00.592Z,3.67
2023-04-20T17:29:02.466Z,3.85
2023-04-20T17:33:04.386Z,3.60
2023-04-20T17:37:07.222Z,3.60
2023-04-20T17:41:09.023Z,3.78
2023-04-20T17:45:11.946Z,4.28
2023-04-20T17:49:13.837Z,4.03
2023-04-20T17:53:15.819Z,3.90
2023-04-20T17:57:17.613Z,4.13
2023-04-20T18:01:19.564Z,4.18
2023-04-20T18:05:21.606Z,4.00
2023-04-20T18:09:23.468Z,4.13
2023-04-20T18:13:25.562Z,3.90
2023-04-20T18:17:27.438Z,3.80
2023-04-20T18:21:29.836Z,4.55
2023-04-20T18:25:31.656Z,4.22
2023-04-20T18:29:33.572Z,3.83
2023-04-20T18:33:35.976Z,4.15
2023-04-20T18:37:38.480Z,4.00
2023-04-20T18:41:40.463Z,5.15
2023-04-20T18:45:42.244Z,4.20
2023-04-20T18:49:44.060Z,4.30
2023-04-20T18:53:45.972Z,4.60
2023-04-20T18:57:47.811Z,4.20
2023-04-20T19:01:49.755Z,3.92
2023-04-20T19:05:51.655Z,4.10
2023-04-20T19:09:53.587Z,4.60
2023-04-20T19:13:55.512Z,4.53
2023-04-20T19:17:57.774Z,4.75
2023-04-20T19:22:00.783Z,4.75
2023-04-20T19:26:03.042Z,4.50
2023-04-20T19:30:05.436Z,4.93
2023-04-20T19:34:07.469Z,5.13
2023-04-20T19:38:09.282Z,5.32
2023-04-20T19:42:11.193Z,4.68
2023-04-20T19:46:16.490Z,5.18
2023-04-20T19:50:19.137Z,4.65
2023-04-20T19:54:21.124Z,4.25
2023-04-20T19:58:23.305Z,4.88
2023-04-20T20:02:25.464Z,4.45
2023-04-20T20:06:27.427Z,4.88
2023-04-20T20:10:29.210Z,4.57
2023-04-20T20:14:35.012Z,4.65
2023-04-20T20:18:38.518Z,5.47
2023-04-20T20:22:40.564Z,5.38
2023-04-20T20:26:42.430Z,4.97
2023-04-20T20:30:45.517Z,4.93
2023-04-20T20:34:47.413Z,5.05
2023-04-20T20:38:49.306Z,4.80
2023-04-20T20:42:51.223Z,4.53
2023-04-20T20:46:53.051Z,4.82
2023-04-20T20:50:54.929Z,5.28
2023-04-20T20:54:56.821Z,5.75
2023-04-20T20:58:58.728Z,5.18
2023-04-20T21:03:00.976Z,4.60
2023-04-20T21:07:03.072Z,5.40
2023-04-20T21:11:04.997Z,5.60
2023-04-20T21:15:07.619Z,5.60
2023-04-20T21:19:10.935Z,5.50
2023-04-20T21:23:12.713Z,5.30
2023-04-20T21:27:14.607Z,5.20
2023-04-20T21:31:16.517Z,5.90
2023-04-20T21:35:18.380Z,5.57
2023-04-20T21:39:20.450Z,5.55
2023-04-20T21:43:22.497Z,5.97
2023-04-20T21:47:24.347Z,6.30
2023-04-20T21:51:26.237Z,5.68
2023-04-20T21:55:28.353Z,5.68
2023-04-20T21:59:30.281Z,6.18
2023-04-20T22:03:34.882Z,6.03
2023-04-20T22:07:40.807Z,6.07
2023-04-20T22:11:42.604Z,7.20
2023-04-20T22:15:47.456Z,6.25
2023-04-20T22:19:49.513Z,6.45
2023-04-20T22:23:51.313Z,6.07
2023-04-20T22:27:53.122Z,6.13
2023-04-20T22:31:55.660Z,6.82
2023-04-20T22:35:57.477Z,6.72
2023-04-20T22:39:59.445Z,6.93
2023-04-20T22:44:01.321Z,6.90
2023-04-20T22:48:03.776Z,6.80
2023-04-20T22:52:06.008Z,6.47
2023-04-20T22:56:08.291Z,6.20
2023-04-20T23:00:10.989Z,6.43
2023-04-20T23:04:14.216Z,6.10
2023-04-20T23:08:17.766Z,7.63
2023-04-20T23:12:20.893Z,6.60
2023-04-20T23:16:23.402Z,7.55
2023-04-20T23:20:25.415Z,7.45
2023-04-20T23:24:27.320Z,6.10
2023-04-20T23:28:29.136Z,6.65
2023-04-20T23:32:31.459Z,7.78
2023-04-20T23:36:33.444Z,6.85
2023-04-20T23:40:35.279Z,7.10
2023-04-20T23:44:37.114Z,6.85
2023-04-20T23:48:38.885Z,6.97
2023-04-20T23:52:41.539Z,7.55
2023-04-20T23:56:43.373Z,8.05
